Terminal Aerodrome Forecast
Issued by NWS

Home | Current Version | Previous Version | Text Only | Print | Product List | Glossary On
Versions: 1 2 3 4 5 6 7 8 9 10 11 12 13 14 15 16 17 18 19 20 21 22 23 24 25 26 27 28
555
FTUS46 KHNX 211826 AAA
TAFVIS
TAF AMD
KVIS 211826Z 2118/2218 VRB03KT P6SM SCT009 BKN025
      TEMPO 2118/2121 -RA BKN009
     FM220000 31005KT P6SM SCT050
     FM220900 VRB03KT P6SM SCT250
     FM221500 VRB03KT P6SM BKN250=

USA.gov is the U.S. government's official web portal to all federal, state and local government web resources and services.